createdAt,value
2022-10-04T00:00:45.816Z,100849.16
2022-10-04T00:04:01.412Z,100839.66
2022-10-04T00:06:47.620Z,100827.94
2022-10-04T00:09:43.662Z,100828.27
2022-10-04T00:12:44.989Z,100827.91
2022-10-04T00:15:53.336Z,100833.75
2022-10-04T00:18:45.189Z,100847.83
2022-10-04T00:21:21.935Z,100836.70
2022-10-04T00:24:29.640Z,100819.82
2022-10-04T00:27:21.589Z,100816.29
2022-10-04T00:34:47.853Z,100807.19
2022-10-04T00:41:25.448Z,100787.48
2022-10-04T00:44:38.238Z,100773.28
2022-10-04T00:52:26.490Z,100764.36
2022-10-04T00:55:04.886Z,100765.02
2022-10-04T00:57:59.128Z,100753.34
2022-10-04T01:00:34.817Z,100751.52
2022-10-04T01:03:27.482Z,100734.60
2022-10-04T01:06:05.085Z,100731.86
2022-10-04T01:09:01.162Z,100729.86
2022-10-04T01:12:14.239Z,100719.66
2022-10-04T01:14:57.536Z,100709.70
2022-10-04T01:18:09.430Z,100711.50
2022-10-04T01:21:22.836Z,100713.27
2022-10-04T01:24:35.161Z,100722.71
2022-10-04T01:27:43.776Z,100723.95
2022-10-04T01:30:50.770Z,100729.47
2022-10-04T01:33:37.626Z,100732.17
2022-10-04T01:36:46.930Z,100728.80
2022-10-04T01:39:55.451Z,100717.91
2022-10-04T01:42:59.767Z,100704.59
2022-10-04T01:54:23.803Z,100673.77
2022-10-04T01:57:06.865Z,100673.11
2022-10-04T02:00:10.365Z,100686.19
2022-10-04T02:03:01.176Z,100673.05
2022-10-04T02:06:02.259Z,100659.11
2022-10-04T02:08:57.271Z,100650.89
2022-10-04T02:12:06.576Z,100644.32
2022-10-04T02:15:15.528Z,100630.17
2022-10-04T02:18:24.039Z,100627.52
2022-10-04T02:21:15.392Z,100627.11
2022-10-04T02:24:12.891Z,100618.91
2022-10-04T02:27:02.231Z,100614.68
2022-10-04T02:29:50.139Z,100619.50
2022-10-04T02:32:59.216Z,100611.10
2022-10-04T02:36:08.106Z,100613.10
2022-10-04T02:39:23.237Z,100598.46
2022-10-04T02:41:56.033Z,100603.45
2022-10-04T02:44:28.712Z,100591.27
2022-10-04T02:47:12.557Z,100591.05
2022-10-04T02:49:54.647Z,100578.08
2022-10-04T02:52:45.718Z,100576.62
2022-10-04T02:56:02.035Z,100564.94
2022-10-04T02:59:15.881Z,100560.73
2022-10-04T03:02:29.462Z,100554.53
2022-10-04T03:05:05.566Z,100546.36
2022-10-04T03:08:12.811Z,100543.37
2022-10-04T03:15:23.055Z,100546.86
2022-10-04T03:18:31.805Z,100544.84
2022-10-04T03:22:19.560Z,100542.00
2022-10-04T03:25:29.846Z,100551.56
2022-10-04T03:28:38.511Z,100539.42
2022-10-04T03:31:27.349Z,100526.20
2022-10-04T03:34:24.903Z,100522.34
2022-10-04T03:37:18.887Z,100514.52
2022-10-04T03:40:28.796Z,100512.31
2022-10-04T03:43:43.174Z,100518.98
2022-10-04T03:46:37.390Z,100520.45
2022-10-04T03:49:37.273Z,100504.86
2022-10-04T03:57:00.687Z,100500.69
2022-10-04T03:59:42.722Z,100496.16
2022-10-04T04:02:26.820Z,100495.05
2022-10-04T04:05:16.572Z,100497.34
2022-10-04T04:12:54.000Z,100481.50
2022-10-04T04:15:38.118Z,100482.04
2022-10-04T04:18:48.475Z,100475.88
2022-10-04T04:25:47.982Z,100476.52
2022-10-04T04:32:23.653Z,100458.21
2022-10-04T04:35:18.279Z,100459.62
2022-10-04T04:38:26.322Z,100441.58
2022-10-04T04:41:14.516Z,100431.76
2022-10-04T04:44:37.653Z,100439.43
2022-10-04T04:47:50.167Z,100432.70
2022-10-04T04:50:50.912Z,100425.48
2022-10-04T04:53:43.139Z,100424.98
2022-10-04T05:00:41.662Z,100438.20
2022-10-04T05:04:03.011Z,100429.27
2022-10-04T05:11:05.380Z,100428.27
2022-10-04T05:13:56.512Z,100420.66
2022-10-04T05:16:46.564Z,100423.92
2022-10-04T05:19:16.718Z,100407.00
2022-10-04T05:22:07.870Z,100406.52
2022-10-04T05:24:51.852Z,100393.71
2022-10-04T05:28:02.249Z,100386.77
2022-10-04T05:30:39.354Z,100389.17
2022-10-04T05:33:46.196Z,100382.33
2022-10-04T05:36:50.634Z,100376.72
2022-10-04T05:40:04.742Z,100378.61
2022-10-04T05:42:37.241Z,100372.51
2022-10-04T05:45:16.801Z,100358.06
2022-10-04T05:48:14.118Z,100355.70
2022-10-04T05:50:54.878Z,100361.23
2022-10-04T05:54:04.692Z,100364.92
2022-10-04T05:57:30.279Z,100359.89
2022-10-04T06:00:43.338Z,100360.55
2022-10-04T06:03:44.386Z,100363.73
2022-10-04T06:06:19.485Z,100364.27
2022-10-04T06:09:13.773Z,100369.02
2022-10-04T06:12:05.964Z,100367.23
2022-10-04T06:15:16.847Z,100357.92
2022-10-04T06:18:35.877Z,100364.77
2022-10-04T06:21:37.638Z,100361.31
2022-10-04T06:24:39.522Z,100356.36
2022-10-04T06:27:41.286Z,100353.09
2022-10-04T06:30:14.603Z,100342.79
2022-10-04T06:37:10.928Z,100340.37
2022-10-04T06:40:37.408Z,100333.05
2022-10-04T06:43:42.364Z,100334.45
2022-10-04T06:46:16.980Z,100330.20
2022-10-04T06:49:21.721Z,100332.73
2022-10-04T06:52:00.738Z,100340.79
2022-10-04T06:54:45.543Z,100326.95
2022-10-04T06:57:25.510Z,100327.17
2022-10-04T07:00:05.676Z,100332.70
2022-10-04T07:02:35.867Z,100339.44
2022-10-04T07:09:16.320Z,100333.62
2022-10-04T07:12:00.157Z,100331.24
2022-10-04T07:14:52.209Z,100337.23
2022-10-04T07:17:27.955Z,100328.64
2022-10-04T07:20:14.125Z,100346.55
2022-10-04T07:22:49.794Z,100354.50
2022-10-04T07:25:21.016Z,100363.16
2022-10-04T07:28:23.004Z,100363.45
2022-10-04T07:35:44.941Z,100354.92
2022-10-04T07:38:20.309Z,100347.41
2022-10-04T07:41:03.313Z,100349.02
2022-10-04T07:43:32.601Z,100348.92
2022-10-04T07:50:19.313Z,100361.13
2022-10-04T07:52:54.205Z,100360.33
2022-10-04T07:55:28.714Z,100359.48
2022-10-04T07:58:09.150Z,100374.06
2022-10-04T08:00:47.743Z,100380.09
2022-10-04T08:03:31.882Z,100377.66
2022-10-04T08:06:09.998Z,100385.77
2022-10-04T08:09:24.372Z,100371.20
2022-10-04T08:11:59.451Z,100384.98
2022-10-04T08:14:39.039Z,100388.91
2022-10-04T08:17:16.750Z,100385.96
2022-10-04T08:19:50.900Z,100389.34
2022-10-04T08:22:48.520Z,100389.10
2022-10-04T08:25:37.489Z,100395.96
2022-10-04T08:28:36.844Z,100389.88
2022-10-04T08:31:15.502Z,100386.35
2022-10-04T08:33:54.985Z,100405.45
2022-10-04T08:36:28.945Z,100397.38
2022-10-04T08:39:19.861Z,100399.97
2022-10-04T08:42:09.636Z,100410.23
2022-10-04T08:44:57.465Z,100405.37
2022-10-04T08:48:05.337Z,100413.27
2022-10-04T08:51:03.766Z,100419.22
2022-10-04T08:53:50.513Z,100414.44
2022-10-04T08:57:04.807Z,100410.96
2022-10-04T08:59:50.501Z,100412.15
2022-10-04T09:02:43.911Z,100404.73
2022-10-04T09:05:24.019Z,100394.05
2022-10-04T09:08:09.269Z,100376.75
2022-10-04T09:11:29.412Z,100394.45
2022-10-04T09:14:16.888Z,100382.56
2022-10-04T09:17:22.353Z,100380.98
2022-10-04T09:20:26.209Z,100390.12
2022-10-04T09:23:00.803Z,100399.88
2022-10-04T09:25:54.304Z,100388.95
2022-10-04T09:29:08.593Z,100397.37
2022-10-04T09:32:22.700Z,100379.56
2022-10-04T09:35:13.567Z,100384.41
2022-10-04T09:38:02.121Z,100384.41
2022-10-04T09:41:29.251Z,100403.17
2022-10-04T09:44:23.915Z,100396.77
2022-10-04T09:47:37.686Z,100393.81
2022-10-04T09:50:39.542Z,100390.30
2022-10-04T09:53:36.317Z,100395.98
2022-10-04T09:57:00.800Z,100405.77
2022-10-04T09:59:56.619Z,100452.66
2022-10-04T10:03:01.195Z,100474.77
2022-10-04T10:05:59.893Z,100472.52
2022-10-04T10:08:48.716Z,100465.03
2022-10-04T10:11:58.834Z,100474.75
2022-10-04T10:15:00.897Z,100422.80
2022-10-04T10:17:50.702Z,100428.17
2022-10-04T10:20:59.154Z,100438.91
2022-10-04T10:24:00.407Z,100426.33
2022-10-04T10:27:19.823Z,100457.94
2022-10-04T10:30:02.976Z,100469.52
2022-10-04T10:33:11.894Z,100484.14
2022-10-04T10:35:50.707Z,100493.20
2022-10-04T10:38:35.167Z,100496.98
2022-10-04T10:41:35.283Z,100514.40
2022-10-04T10:44:23.180Z,100512.78
2022-10-04T10:47:28.977Z,100518.14
2022-10-04T10:50:04.280Z,100504.10
2022-10-04T10:53:17.670Z,100497.48
2022-10-04T10:56:13.451Z,100490.38
2022-10-04T10:59:20.196Z,100488.51
2022-10-04T11:02:47.719Z,100485.89
2022-10-04T11:05:37.437Z,100495.15
2022-10-04T11:08:11.164Z,100503.29
2022-10-04T11:11:08.052Z,100511.56
2022-10-04T11:13:56.907Z,100497.70
2022-10-04T11:16:48.900Z,100501.70
2022-10-04T11:19:47.485Z,100503.48
2022-10-04T11:27:05.528Z,100505.41
2022-10-04T11:29:47.854Z,100503.39
2022-10-04T11:32:41.364Z,100500.48
2022-10-04T11:35:26.147Z,100507.05
2022-10-04T11:38:02.293Z,100504.40
2022-10-04T11:40:59.638Z,100508.16
2022-10-04T11:43:49.996Z,100505.60
2022-10-04T11:46:43.451Z,100514.33
2022-10-04T11:49:47.503Z,100505.16
2022-10-04T11:52:37.952Z,100504.38
2022-10-04T11:55:25.852Z,100508.92
2022-10-04T11:57:55.683Z,100502.59
2022-10-04T12:04:53.221Z,100500.77
2022-10-04T12:07:48.959Z,100495.42
2022-10-04T12:10:34.308Z,100494.85
2022-10-04T12:13:16.077Z,100493.83
2022-10-04T12:16:05.355Z,100502.37
2022-10-04T12:18:52.697Z,100522.06
2022-10-04T12:21:46.101Z,100510.91
2022-10-04T12:24:32.049Z,100509.59
2022-10-04T12:27:24.318Z,100518.26
2022-10-04T12:30:20.859Z,100514.66
2022-10-04T12:33:04.551Z,100516.40
2022-10-04T12:35:44.796Z,100514.36
2022-10-04T12:38:36.848Z,100488.30
2022-10-04T12:41:19.865Z,100466.81
2022-10-04T12:43:56.153Z,100482.48
2022-10-04T12:46:31.097Z,100486.94
2022-10-04T12:49:15.429Z,100504.30
2022-10-04T12:51:53.140Z,100516.23
2022-10-04T12:54:41.173Z,100494.69
2022-10-04T12:57:17.010Z,100478.02
2022-10-04T13:00:00.342Z,100465.48
2022-10-04T13:03:02.005Z,100466.00
2022-10-04T13:05:47.934Z,100490.08
2022-10-04T13:08:31.830Z,100506.84
2022-10-04T13:11:09.972Z,100507.67
2022-10-04T13:14:25.566Z,100500.63
2022-10-04T13:19:55.551Z,100503.27
2022-10-04T13:22:58.558Z,100498.98
2022-10-04T13:25:58.848Z,100505.60
2022-10-04T13:29:02.713Z,100505.91
2022-10-04T13:31:38.590Z,100502.87
2022-10-04T13:34:29.182Z,100482.48
2022-10-04T13:37:14.430Z,100499.78
2022-10-04T13:40:28.618Z,100507.00
2022-10-04T13:43:39.405Z,100514.54
2022-10-04T13:46:42.983Z,100511.20
2022-10-04T13:49:27.259Z,100499.55
2022-10-04T13:52:35.494Z,100504.12
2022-10-04T13:55:50.713Z,100488.78
2022-10-04T13:58:46.056Z,100480.13
2022-10-04T14:02:00.473Z,100480.98
2022-10-04T14:05:36.364Z,100471.23
2022-10-04T14:08:34.240Z,100451.48
2022-10-04T14:11:28.026Z,100444.76
2022-10-04T14:14:17.769Z,100485.73
2022-10-04T14:17:13.963Z,100491.16
2022-10-04T14:20:16.531Z,100491.98
2022-10-04T14:26:40.147Z,100479.66
2022-10-04T14:30:09.456Z,100459.66
2022-10-04T14:34:05.326Z,100436.63
2022-10-04T14:37:47.350Z,100440.80
2022-10-04T14:40:35.875Z,100445.71
2022-10-04T14:43:20.657Z,100439.52
2022-10-04T14:46:21.770Z,100435.81
2022-10-04T14:49:19.988Z,100440.98
2022-10-04T14:56:08.280Z,100457.55
2022-10-04T14:59:41.332Z,100462.66
2022-10-04T15:03:23.874Z,100456.67
2022-10-04T15:06:21.735Z,100457.10
2022-10-04T15:09:03.482Z,100458.05
2022-10-04T15:12:25.602Z,100464.18
2022-10-04T15:16:15.374Z,100463.85
2022-10-04T15:20:07.846Z,100466.23
2022-10-04T15:22:57.861Z,100457.79
2022-10-04T15:26:10.467Z,100450.20
2022-10-04T15:29:08.958Z,100449.88
2022-10-04T15:37:13.277Z,100437.95
2022-10-04T15:40:50.603Z,100432.40
2022-10-04T15:51:15.111Z,100419.25
2022-10-04T15:55:02.876Z,100423.36
2022-10-04T15:57:57.832Z,100419.73
2022-10-04T16:08:50.696Z,100408.60
2022-10-04T16:16:17.996Z,100400.41
2022-10-04T16:19:22.688Z,100388.10
2022-10-04T16:21:53.004Z,100386.15
2022-10-04T16:37:46.578Z,100379.05
2022-10-04T16:44:58.918Z,100360.61
2022-10-04T16:48:04.592Z,100357.29
2022-10-04T16:51:04.358Z,100348.22
2022-10-04T16:54:15.869Z,100338.02
2022-10-04T16:57:31.688Z,100351.08
2022-10-04T17:00:20.113Z,100354.68
2022-10-04T17:03:26.655Z,100356.09
2022-10-04T17:06:12.130Z,100353.38
2022-10-04T17:09:08.000Z,100344.50
2022-10-04T17:12:00.755Z,100345.17
2022-10-04T17:14:42.442Z,100345.08
2022-10-04T17:17:22.442Z,100334.18
2022-10-04T17:20:02.073Z,100330.80
2022-10-04T17:23:17.816Z,100332.36
2022-10-04T17:26:05.886Z,100332.02
2022-10-04T17:29:17.780Z,100328.27
2022-10-04T17:31:55.639Z,100316.79
2022-10-04T17:34:51.739Z,100314.83
2022-10-04T17:37:56.210Z,100321.22
2022-10-04T17:40:49.154Z,100311.95
2022-10-04T17:43:20.757Z,100307.05
2022-10-04T17:46:29.491Z,100307.16
2022-10-04T17:49:43.275Z,100306.02
2022-10-04T17:53:00.023Z,100319.11
2022-10-04T17:55:35.271Z,100329.70
2022-10-04T17:58:40.771Z,100338.65
2022-10-04T18:01:53.271Z,100332.36
2022-10-04T18:04:46.172Z,100330.13
2022-10-04T18:07:39.271Z,100318.93
2022-10-04T18:10:50.554Z,100297.79
2022-10-04T18:13:55.894Z,100286.30
2022-10-04T18:16:44.303Z,100288.23
2022-10-04T18:19:45.053Z,100299.22
2022-10-04T18:22:17.411Z,100303.77
2022-10-04T18:25:12.165Z,100300.84
2022-10-04T18:27:49.462Z,100296.58
2022-10-04T18:30:58.529Z,100296.48
2022-10-04T18:33:31.439Z,100292.19
2022-10-04T18:36:31.452Z,100271.69
2022-10-04T18:39:57.489Z,100266.86
2022-10-04T18:42:56.828Z,100253.36
2022-10-04T18:46:14.225Z,100255.45
2022-10-04T18:49:12.913Z,100250.89
2022-10-04T18:52:08.000Z,100250.88
2022-10-04T18:55:12.248Z,100242.75
2022-10-04T18:58:37.656Z,100239.71
2022-10-04T19:02:00.533Z,100236.11
2022-10-04T19:05:07.006Z,100225.60
2022-10-04T19:07:59.832Z,100215.09
2022-10-04T19:10:52.204Z,100200.94
2022-10-04T19:13:29.634Z,100203.45
2022-10-04T19:16:14.957Z,100193.06
2022-10-04T19:19:12.999Z,100196.81
2022-10-04T19:22:18.467Z,100206.31
2022-10-04T19:25:25.429Z,100210.84
2022-10-04T19:28:37.849Z,100214.50
2022-10-04T19:31:19.069Z,100208.53
2022-10-04T19:34:32.050Z,100214.52
2022-10-04T19:37:38.439Z,100200.91
2022-10-04T19:40:40.504Z,100192.14
2022-10-04T19:43:25.053Z,100192.17
2022-10-04T19:46:15.148Z,100187.73
2022-10-04T19:49:00.919Z,100179.31
2022-10-04T19:52:22.487Z,100169.02
2022-10-04T19:55:04.353Z,100154.64
2022-10-04T19:57:56.692Z,100147.86
2022-10-04T20:00:40.090Z,100149.56
2022-10-04T20:03:34.962Z,100153.48
2022-10-04T20:06:55.704Z,100156.97
2022-10-04T20:10:24.116Z,100139.25
2022-10-04T20:13:27.287Z,100126.29
2022-10-04T20:16:00.670Z,100134.05
2022-10-04T20:19:19.460Z,100127.21
2022-10-04T20:22:19.720Z,100126.23
2022-10-04T20:24:58.048Z,100122.45
2022-10-04T20:28:03.301Z,100126.02
2022-10-04T20:31:28.435Z,100128.14
2022-10-04T20:34:49.220Z,100125.52
2022-10-04T20:42:22.921Z,100118.73
2022-10-04T20:45:23.115Z,100123.92
2022-10-04T20:48:27.389Z,100126.95
2022-10-04T20:51:37.566Z,100119.94
2022-10-04T20:54:23.709Z,100121.88
2022-10-04T20:57:51.252Z,100120.89
2022-10-04T21:00:56.960Z,100114.64
2022-10-04T21:04:13.000Z,100098.77
2022-10-04T21:07:46.672Z,100096.44
2022-10-04T21:11:18.305Z,100101.61
2022-10-04T21:14:37.668Z,100084.46
2022-10-04T21:17:45.625Z,100073.73
2022-10-04T21:20:55.070Z,100079.17
2022-10-04T21:24:19.206Z,100077.13
2022-10-04T21:27:13.266Z,100070.55
2022-10-04T21:30:24.703Z,100069.64
2022-10-04T21:33:34.453Z,100072.05
2022-10-04T21:36:23.436Z,100057.65
2022-10-04T21:39:32.549Z,100054.23
2022-10-04T21:42:39.105Z,100051.70
2022-10-04T21:45:32.892Z,100039.61
2022-10-04T21:48:41.691Z,100044.39
2022-10-04T21:51:32.599Z,100038.91
2022-10-04T21:54:41.450Z,100037.37
2022-10-04T21:57:52.015Z,100027.13
2022-10-04T22:01:00.383Z,100020.24
2022-10-04T22:03:57.291Z,100016.83
2022-10-04T22:06:48.839Z,100016.47
2022-10-04T22:09:37.413Z,100018.75
2022-10-04T22:13:03.427Z,100008.23
2022-10-04T22:16:34.743Z,100007.80
2022-10-04T22:19:42.894Z,100002.53
2022-10-04T22:22:43.612Z,100000.84
2022-10-04T22:25:27.194Z,100004.33
2022-10-04T22:32:38.029Z,99996.71
2022-10-04T22:35:20.312Z,99993.71
2022-10-04T22:42:17.674Z,99985.21
2022-10-04T22:49:31.340Z,99978.98
2022-10-04T22:52:37.872Z,99983.80
2022-10-04T22:56:04.850Z,99978.15
2022-10-04T22:58:52.340Z,99966.66
2022-10-04T23:02:05.620Z,99963.10
2022-10-04T23:05:14.568Z,99952.17
2022-10-04T23:08:02.698Z,99946.83
2022-10-04T23:11:31.392Z,99943.41
2022-10-04T23:14:40.386Z,99941.94
2022-10-04T23:17:45.460Z,99934.73
2022-10-04T23:20:35.166Z,99928.20
2022-10-04T23:23:11.572Z,99921.02
2022-10-04T23:26:23.658Z,99911.21
2022-10-04T23:28:51.962Z,99904.95
2022-10-04T23:31:22.853Z,99913.48
2022-10-04T23:34:13.536Z,99917.50
2022-10-04T23:36:41.399Z,99916.13
2022-10-04T23:39:31.409Z,99910.29
2022-10-04T23:42:29.825Z,99910.24
2022-10-04T23:45:27.514Z,99896.55
2022-10-04T23:48:37.012Z,99891.08
2022-10-04T23:51:43.603Z,99880.80
2022-10-04T23:54:50.886Z,99884.33
2022-10-04T23:57:49.349Z,99880.48
